Gerry, New York
Current Conditions -  °F | °C
As of 7:15 PM on Sunday 25 Jan 2015 (Local Time) from KJHW Reporting Station
Clear Clear  
Wind Chill:   Ceiling: Unl
Heat Index: 14°   Visibility: 10mi
Dew Point:   Wind: 9mph
Humidity: 79%   Direction: 30°NNE
Pressure: 29.85"   Gusts: NA
Location:  42.19°N, 79.25°W
Report Text: KJHW 260015Z 03008KT 10SM CLR M10/M13 A2985 RMK AO1
Loading
Personal Weather Stations






























Interactive Weather Map New forecast layout! Learn more

10-Day Weather Forecast

Advertisements
Track Severe Weather on mobile